Time;durP1;ratioP1;P1;durP2;ratioP2;P2;SDS_P1;SDS_P2;PMS_P1;PMS_P2;Temp;Humidity;BMP_temperature;BMP_pressure;BME280_temperature;BME280_humidity;BME280_pressure;Samples;Min_cycle;Max_cycle;Signal;HPM_P1;HPM_P2
2024/04/22 00:00:25;;;;;;;5.00;4.50;;;8.20;73.50;;;;;;5528604;25;20561;-55
2024/04/22 00:02:51;;;;;;;5.87;4.20;;;8.20;73.90;;;;;;5528907;25;20213;-55
2024/04/22 00:05:20;;;;;;;4.50;3.70;;;8.20;74.00;;;;;;5528526;25;20521;-55
2024/04/22 00:07:47;;;;;;;4.53;4.13;;;8.20;74.30;;;;;;5528575;25;20252;-55
2024/04/22 00:10:16;;;;;;;4.27;3.87;;;8.20;74.60;;;;;;5528720;25;20482;-55
2024/04/22 00:12:41;;;;;;;4.40;4.03;;;8.20;74.70;;;;;;5528677;25;20461;-55
2024/04/22 00:15:10;;;;;;;4.90;4.27;;;8.20;74.60;;;;;;5528691;25;20489;-56
2024/04/22 00:17:38;;;;;;;4.23;3.83;;;8.20;74.90;;;;;;5528528;25;20214;-55
2024/04/22 00:20:08;;;;;;;5.40;4.90;;;8.20;75.10;;;;;;5528588;25;20493;-56
2024/04/22 00:22:34;;;;;;;4.30;3.90;;;8.10;75.20;;;;;;5528469;25;20929;-55
2024/04/22 00:25:02;;;;;;;4.63;4.13;;;8.10;75.40;;;;;;5528499;25;20461;-55
2024/04/22 00:27:28;;;;;;;5.93;4.83;;;8.10;75.70;;;;;;5528484;25;20217;-55
2024/04/22 00:29:56;;;;;;;5.50;4.10;;;8.10;75.80;;;;;;5528227;25;20523;-55
2024/04/22 00:32:22;;;;;;;5.03;4.10;;;8.00;76.00;;;;;;5528174;25;20229;-56
2024/04/22 00:34:53;;;;;;;5.07;4.00;;;8.00;76.30;;;;;;5528579;25;20566;-56
2024/04/22 00:37:19;;;;;;;4.80;3.77;;;8.00;76.50;;;;;;5528037;25;20209;-56
2024/04/22 00:39:48;;;;;;;5.50;4.40;;;8.00;77.00;;;;;;5527347;25;20828;-56
2024/04/22 00:42:14;;;;;;;4.13;3.73;;;8.00;77.20;;;;;;5527073;25;20540;-56
2024/04/22 00:44:42;;;;;;;7.70;5.00;;;8.00;77.90;;;;;;5527497;25;20454;-56
2024/04/22 00:47:08;;;;;;;4.83;3.97;;;8.00;78.40;;;;;;5528196;25;20881;-56
2024/04/22 00:49:38;;;;;;;5.80;4.83;;;8.00;78.20;;;;;;5527821;25;20527;-56
2024/04/22 00:52:07;;;;;;;5.30;4.80;;;7.90;78.30;;;;;;5527697;25;20514;-56
2024/04/22 00:54:35;;;;;;;5.60;4.80;;;7.90;78.80;;;;;;5528980;25;20502;-56
2024/04/22 00:57:02;;;;;;;4.67;4.03;;;7.90;79.30;;;;;;5531251;25;20559;-56
2024/04/22 00:59:30;;;;;;;4.67;4.00;;;7.90;79.60;;;;;;5531110;25;20462;-56
2024/04/22 01:01:57;;;;;;;5.70;5.17;;;7.90;79.80;;;;;;5527885;25;20510;-55
2024/04/22 01:04:25;;;;;;;5.20;4.70;;;7.90;80.00;;;;;;5527304;25;20454;-56
2024/04/22 01:06:51;;;;;;;5.57;4.83;;;7.90;80.10;;;;;;5527280;25;20563;-56
2024/04/22 01:09:23;;;;;;;6.10;4.33;;;7.90;80.10;;;;;;5527867;25;20506;-56
2024/04/22 01:11:48;;;;;;;5.33;4.87;;;7.90;80.20;;;;;;5527794;25;20481;-56
2024/04/22 01:14:17;;;;;;;4.67;4.23;;;7.80;80.10;;;;;;5527718;25;20510;-56
2024/04/22 01:16:52;;;;;;;6.67;4.97;;;7.80;80.30;;;;;;5527764;25;20639;-56
2024/04/22 01:19:21;;;;;;;4.70;4.30;;;7.80;80.50;;;;;;5528389;26;20494;-56
2024/04/22 01:21:49;;;;;;;5.30;4.80;;;7.70;80.60;;;;;;5527698;25;20634;-56
2024/04/22 01:24:20;;;;;;;4.43;4.00;;;7.70;81.10;;;;;;5527851;25;20442;-55
2024/04/22 01:26:46;;;;;;;5.13;4.63;;;7.70;80.90;;;;;;5527759;25;20447;-55
2024/04/22 01:29:14;;;;;;;5.07;4.40;;;7.70;81.20;;;;;;5527639;25;20506;-55
2024/04/22 01:31:40;;;;;;;8.93;4.80;;;7.60;81.10;;;;;;5527531;25;20579;-55
2024/04/22 01:34:09;;;;;;;10.20;5.00;;;7.60;81.40;;;;;;5527605;25;20455;-55
2024/04/22 01:36:40;;;;;;;4.90;4.40;;;7.50;81.30;;;;;;5527593;25;20711;-55
2024/04/22 01:39:12;;;;;;;6.23;4.80;;;7.50;81.70;;;;;;5527853;25;20454;-55
2024/04/22 01:41:37;;;;;;;5.07;4.60;;;7.50;82.20;;;;;;5527474;25;20556;-55
2024/04/22 01:44:06;;;;;;;6.30;4.90;;;7.40;82.50;;;;;;5527564;25;20903;-56
2024/04/22 01:46:32;;;;;;;4.97;4.40;;;7.40;82.80;;;;;;5527532;25;20228;-55
2024/04/22 01:49:00;;;;;;;4.17;3.77;;;7.40;83.00;;;;;;5527351;25;20563;-56
2024/04/22 01:51:26;;;;;;;5.57;4.37;;;7.40;83.20;;;;;;5526986;25;20230;-55
2024/04/22 01:53:55;;;;;;;4.80;4.00;;;7.40;83.90;;;;;;5526300;25;21084;-55
2024/04/22 01:56:23;;;;;;;8.60;4.83;;;7.40;84.30;;;;;;5526510;25;20226;-55
2024/04/22 01:58:53;;;;;;;6.40;5.77;;;7.40;84.60;;;;;;5526574;25;20454;-55
2024/04/22 02:01:19;;;;;;;11.13;5.53;;;7.40;85.40;;;;;;5526747;25;20462;-56
2024/04/22 02:03:47;;;;;;;5.43;4.77;;;7.40;85.70;;;;;;5526342;25;20559;-56
2024/04/22 02:06:13;;;;;;;5.60;5.10;;;7.40;86.00;;;;;;5526638;25;20217;-56
2024/04/22 02:08:42;;;;;;;9.10;5.73;;;7.40;86.60;;;;;;5526376;25;20506;-56
2024/04/22 02:11:08;;;;;;;5.70;5.20;;;7.40;87.00;;;;;;5526200;25;20233;-57
2024/04/22 02:13:39;;;;;;;7.77;5.53;;;7.50;87.40;;;;;;5526297;25;20493;-56
2024/04/22 02:16:05;;;;;;;6.47;5.77;;;7.50;87.60;;;;;;5527115;25;20242;-56
2024/04/22 02:18:33;;;;;;;7.80;5.77;;;7.40;87.60;;;;;;5527025;25;20827;-56
2024/04/22 02:20:59;;;;;;;8.83;5.40;;;7.50;88.00;;;;;;5526627;25;20940;-56
2024/04/22 02:23:28;;;;;;;6.50;5.40;;;7.40;88.20;;;;;;5526232;25;20446;-55
2024/04/22 02:25:53;;;;;;;6.77;5.37;;;7.50;88.60;;;;;;5526071;25;20578;-56
2024/04/22 02:28:22;;;;;;;8.33;6.27;;;7.40;88.70;;;;;;5526219;25;20462;-56
2024/04/22 02:30:50;;;;;;;7.47;4.97;;;7.40;88.90;;;;;;5525915;25;20237;-55
2024/04/22 02:33:19;;;;;;;6.23;5.43;;;7.40;89.20;;;;;;5526011;25;20841;-56
2024/04/22 02:35:45;;;;;;;5.83;5.23;;;7.40;89.30;;;;;;5525870;25;20462;-55
2024/04/22 02:38:14;;;;;;;5.93;5.30;;;7.40;89.30;;;;;;5525945;25;20540;-55
2024/04/22 02:40:40;;;;;;;5.40;4.87;;;7.40;89.30;;;;;;5525609;25;20790;-55
2024/04/22 02:43:09;;;;;;;6.17;5.17;;;7.40;89.30;;;;;;5526236;25;20438;-56
2024/04/22 02:45:35;;;;;;;5.80;5.20;;;7.40;89.20;;;;;;5526029;25;20217;-56
2024/04/22 02:48:06;;;;;;;6.10;4.90;;;7.40;89.10;;;;;;5526515;25;20499;-56
2024/04/22 02:50:32;;;;;;;7.13;5.90;;;7.30;89.20;;;;;;5526015;25;20510;-55
2024/04/22 02:53:01;;;;;;;5.70;4.83;;;7.30;89.60;;;;;;5525436;25;20465;-55
2024/04/22 02:55:29;;;;;;;6.60;5.57;;;7.30;89.80;;;;;;5525171;25;20446;-55
2024/04/22 02:57:57;;;;;;;6.17;5.43;;;7.20;89.90;;;;;;5525049;25;20487;-55
2024/04/22 03:00:24;;;;;;;6.50;5.90;;;7.20;90.00;;;;;;5525000;25;20477;-55
2024/04/22 03:02:52;;;;;;;5.33;4.83;;;7.20;90.10;;;;;;5525102;25;20536;-55
2024/04/22 03:05:21;;;;;;;7.00;5.97;;;7.10;90.10;;;;;;5525102;25;20836;-56
2024/04/22 03:07:49;;;;;;;6.30;5.70;;;7.10;90.40;;;;;;5525033;25;20931;-55
2024/04/22 03:10:15;;;;;;;6.70;5.80;;;7.10;90.50;;;;;;5524938;25;20548;-55
2024/04/22 03:12:44;;;;;;;6.00;5.20;;;7.10;90.60;;;;;;5524903;25;20892;-55
2024/04/22 03:15:09;;;;;;;7.23;5.90;;;7.10;90.80;;;;;;5525323;25;20506;-55
2024/04/22 03:17:38;;;;;;;8.13;5.67;;;7.10;91.00;;;;;;5525616;25;20807;-55
2024/04/22 03:20:05;;;;;;;5.30;4.80;;;7.00;91.20;;;;;;5525381;25;20263;-55
2024/04/22 03:22:36;;;;;;;6.63;5.93;;;7.10;91.40;;;;;;5524537;25;21144;-55
2024/04/22 03:25:03;;;;;;;6.40;5.80;;;7.10;91.60;;;;;;5524720;25;20503;-55
2024/04/22 03:27:32;;;;;;;6.27;5.33;;;7.10;91.80;;;;;;5524400;25;20494;-55
2024/04/22 03:29:58;;;;;;;9.23;5.90;;;7.00;91.90;;;;;;5524482;25;20548;-55
2024/04/22 03:32:26;;;;;;;5.87;5.30;;;7.00;92.10;;;;;;5524393;25;20454;-55
2024/04/22 03:34:52;;;;;;;6.27;5.57;;;7.00;92.20;;;;;;5524341;25;20253;-56
2024/04/22 03:37:20;;;;;;;6.83;5.90;;;7.00;92.20;;;;;;5524438;25;20498;-55
2024/04/22 03:39:52;;;;;;;7.17;5.97;;;7.00;92.30;;;;;;5524272;25;20264;-55
2024/04/22 03:42:20;;;;;;;7.67;5.80;;;7.00;92.40;;;;;;5524194;25;20457;-55
2024/04/22 03:44:46;;;;;;;7.30;5.80;;;7.00;92.40;;;;;;5524669;25;20450;-56
2024/04/22 03:49:58;;;;;;;7.63;6.70;;;7.10;92.60;;;;;;5527598;26;20252;-55
2024/04/22 03:52:27;;;;;;;9.50;6.70;;;7.10;92.60;;;;;;5524331;25;20458;-55
2024/04/22 03:54:58;;;;;;;7.80;6.27;;;7.00;92.60;;;;;;5523797;25;20453;-56
2024/04/22 03:57:24;;;;;;;6.03;5.50;;;7.00;92.60;;;;;;5523917;25;21089;-55
2024/04/22 03:59:53;;;;;;;6.73;6.13;;;7.00;92.70;;;;;;5523831;25;20450;-56
2024/04/22 04:02:21;;;;;;;8.80;6.30;;;7.00;92.70;;;;;;5523786;25;20240;-55
2024/04/22 04:04:47;;;;;;;10.13;6.30;;;7.00;92.80;;;;;;5524187;25;20501;-55
2024/04/22 04:07:15;;;;;;;10.53;7.10;;;7.00;93.30;;;;;;5524553;25;20845;-56
2024/04/22 04:09:42;;;;;;;8.37;6.47;;;7.00;93.10;;;;;;5524283;25;20229;-56
2024/04/22 04:12:13;;;;;;;6.90;6.10;;;7.00;93.30;;;;;;5523793;25;20529;-55
2024/04/22 04:14:39;;;;;;;9.10;7.60;;;7.00;93.30;;;;;;5523997;25;20509;-55
2024/04/22 04:17:07;;;;;;;7.90;7.10;;;7.00;93.50;;;;;;5524671;25;20512;-54
2024/04/22 04:19:33;;;;;;;7.40;6.67;;;7.00;93.60;;;;;;5527804;25;20449;-55
2024/04/22 04:22:02;;;;;;;8.23;7.20;;;7.00;93.70;;;;;;5528003;25;20518;-55
2024/04/22 04:24:28;;;;;;;7.77;6.40;;;7.00;93.90;;;;;;5527821;25;20454;-56
2024/04/22 04:26:56;;;;;;;7.23;6.53;;;7.00;94.10;;;;;;5528147;25;20446;-56
2024/04/22 04:29:25;;;;;;;8.73;7.10;;;7.00;94.30;;;;;;5527916;25;20248;-55
2024/04/22 04:31:53;;;;;;;8.17;7.27;;;7.00;94.50;;;;;;5527739;25;20522;-56
2024/04/22 04:34:19;;;;;;;7.63;6.87;;;7.00;94.70;;;;;;5527575;25;21030;-56
2024/04/22 04:36:47;;;;;;;9.73;7.60;;;7.00;94.80;;;;;;5528103;25;20450;-55
2024/04/22 04:39:13;;;;;;;9.30;7.87;;;7.00;95.10;;;;;;5527727;25;20317;-56
2024/04/22 04:41:42;;;;;;;8.67;7.77;;;7.00;95.30;;;;;;5528032;25;20948;-56
2024/04/22 04:44:08;;;;;;;10.07;8.20;;;7.00;95.50;;;;;;5527777;25;20256;-56
2024/04/22 04:46:39;;;;;;;8.40;7.60;;;7.10;95.90;;;;;;5528130;25;20454;-56
2024/04/22 04:49:05;;;;;;;10.33;7.63;;;7.10;96.00;;;;;;5528507;25;20631;-56
2024/04/22 04:51:33;;;;;;;10.90;8.43;;;7.10;96.10;;;;;;5527699;25;20474;-56
2024/04/22 04:53:59;;;;;;;10.03;8.27;;;7.10;96.30;;;;;;5527607;25;20580;-56
2024/04/22 04:56:28;;;;;;;9.67;7.53;;;7.10;96.40;;;;;;5527743;25;20862;-55
2024/04/22 04:58:54;;;;;;;8.93;8.03;;;7.10;96.50;;;;;;5527305;25;20233;-56
2024/04/22 05:01:22;;;;;;;10.80;8.70;;;7.10;97.00;;;;;;5527636;25;21011;-56
2024/04/22 05:03:53;;;;;;;10.27;9.27;;;7.10;96.70;;;;;;5527838;25;20675;-56
2024/04/22 05:06:19;;;;;;;10.60;8.07;;;7.10;96.90;;;;;;5528365;25;20498;-56
2024/04/22 05:08:47;;;;;;;11.50;8.00;;;7.10;96.90;;;;;;5527843;25;20975;-56
2024/04/22 05:11:14;;;;;;;10.60;7.67;;;7.20;97.00;;;;;;5527562;25;20221;-56
2024/04/22 05:13:42;;;;;;;11.87;7.97;;;7.20;97.10;;;;;;5527449;25;21080;-56
2024/04/22 05:16:08;;;;;;;9.80;8.80;;;7.20;97.30;;;;;;5527569;25;20217;-56
2024/04/22 05:18:37;;;;;;;8.80;7.90;;;7.20;97.50;;;;;;5528126;25;20495;-56
2024/04/22 05:21:05;;;;;;;9.33;7.37;;;7.30;97.60;;;;;;5527120;25;20237;-56
2024/04/22 05:23:34;;;;;;;10.77;7.80;;;7.30;97.60;;;;;;5527506;25;20450;-56
2024/04/22 05:25:59;;;;;;;8.70;7.80;;;7.40;97.40;;;;;;5527672;25;20466;-56
2024/04/22 05:28:28;;;;;;;11.73;7.27;;;7.40;97.40;;;;;;5528532;25;20450;-58
2024/04/22 05:30:54;;;;;;;11.00;7.97;;;7.40;97.30;;;;;;5528650;25;20263;-57
2024/04/22 05:36:14;;;;;;;11.27;7.40;;;7.50;97.20;;;;;;5530567;26;20308;-56
2024/04/22 05:38:43;;;;;;;8.07;7.27;;;7.50;97.00;;;;;;5527408;25;20846;-56
2024/04/22 05:41:13;;;;;;;8.00;7.20;;;7.60;97.00;;;;;;5527443;25;20470;-56
2024/04/22 05:43:42;;;;;;;9.67;8.13;;;7.60;97.00;;;;;;5527850;25;20577;-56
2024/04/22 05:46:11;;;;;;;10.13;8.63;;;7.60;96.90;;;;;;5527500;25;20555;-57
2024/04/22 05:48:39;;;;;;;9.50;8.60;;;7.60;96.80;;;;;;5527281;25;20454;-56
2024/04/22 05:51:10;;;;;;;12.40;7.67;;;7.60;96.70;;;;;;5527157;25;20571;-56
2024/04/22 05:53:39;;;;;;;9.07;7.93;;;7.70;96.80;;;;;;5527245;25;20559;-57
2024/04/22 05:56:05;;;;;;;9.50;8.23;;;7.60;96.70;;;;;;5527202;25;20498;-56
2024/04/22 05:58:34;;;;;;;8.67;7.77;;;7.70;96.80;;;;;;5527102;25;20466;-57
2024/04/22 06:01:00;;;;;;;10.20;8.80;;;7.60;96.80;;;;;;5527169;25;21019;-57
2024/04/22 06:03:28;;;;;;;10.33;8.50;;;7.70;96.90;;;;;;5527180;25;20536;-57
2024/04/22 06:05:54;;;;;;;8.93;8.00;;;7.70;96.90;;;;;;5527081;25;20248;-57
2024/04/22 06:08:25;;;;;;;11.10;8.40;;;7.70;96.90;;;;;;5527118;25;20462;-57
2024/04/22 06:10:51;;;;;;;10.77;7.97;;;7.80;97.00;;;;;;5527206;25;20225;-57
2024/04/22 06:13:20;;;;;;;11.63;8.40;;;7.80;97.10;;;;;;5526915;25;20979;-57
2024/04/22 06:15:46;;;;;;;9.67;8.67;;;7.90;97.20;;;;;;5527103;25;21064;-57
2024/04/22 06:18:14;;;;;;;9.50;8.50;;;7.90;97.30;;;;;;5527331;25;20438;-57
2024/04/22 06:20:40;;;;;;;12.50;9.13;;;8.00;97.20;;;;;;5526837;25;20225;-57
2024/04/22 06:23:09;;;;;;;10.50;8.50;;;8.10;97.30;;;;;;5526572;25;20450;-57
2024/04/22 06:25:37;;;;;;;11.03;9.70;;;8.10;97.30;;;;;;5526629;25;20674;-57
2024/04/22 06:28:06;;;;;;;10.63;8.23;;;8.20;97.10;;;;;;5526652;25;20454;-56
2024/04/22 06:30:32;;;;;;;11.13;9.43;;;8.30;96.90;;;;;;5526208;25;21022;-56
2024/04/22 06:33:01;;;;;;;10.93;9.60;;;8.40;96.70;;;;;;5526677;25;20442;-56
2024/04/22 06:35:26;;;;;;;10.90;8.40;;;8.50;96.70;;;;;;5526740;25;20234;-56
2024/04/22 06:37:55;;;;;;;8.80;7.90;;;8.70;96.70;;;;;;5526435;25;20445;-56
2024/04/22 06:40:21;;;;;;;9.67;8.33;;;8.80;96.70;;;;;;5525541;25;20462;-56
2024/04/22 06:42:52;;;;;;;9.20;8.30;;;9.00;96.20;;;;;;5526081;25;20951;-56
2024/04/22 06:45:18;;;;;;;10.63;8.87;;;9.10;95.80;;;;;;5526171;25;20309;-57
2024/04/22 06:47:46;;;;;;;10.00;8.70;;;9.30;95.60;;;;;;5526536;25;20854;-57
2024/04/22 06:50:13;;;;;;;9.57;8.57;;;9.40;95.50;;;;;;5526567;25;20313;-56
2024/04/22 06:52:42;;;;;;;14.27;12.13;;;9.50;95.40;;;;;;5526618;25;20991;-57
2024/04/22 06:55:08;;;;;;;13.87;11.33;;;9.60;95.50;;;;;;5526661;25;20458;-57
2024/04/22 06:57:37;;;;;;;15.93;11.80;;;9.70;94.90;;;;;;5526999;25;20498;-57
2024/04/22 07:00:06;;;;;;;11.00;9.77;;;9.80;94.60;;;;;;5526231;25;20534;-57
2024/04/22 07:02:35;;;;;;;12.17;9.00;;;9.90;94.40;;;;;;5526416;26;20506;-57
2024/04/22 07:05:00;;;;;;;9.07;8.13;;;10.00;93.60;;;;;;5526401;25;21040;-56
2024/04/22 07:07:29;;;;;;;11.73;8.00;;;10.20;93.40;;;;;;5526541;25;20469;-57
2024/04/22 07:09:55;;;;;;;9.93;8.37;;;10.30;93.00;;;;;;5526342;25;20313;-56
2024/04/22 07:12:23;;;;;;;8.57;7.73;;;10.40;92.60;;;;;;5526271;25;20466;-57
2024/04/22 07:14:49;;;;;;;7.30;6.57;;;10.50;92.30;;;;;;5526105;25;20217;-56
2024/04/22 07:17:21;;;;;;;8.00;6.90;;;10.60;91.60;;;;;;5526318;25;20547;-57
2024/04/22 07:19:48;;;;;;;8.80;7.90;;;10.70;91.30;;;;;;5526192;25;20442;-56
2024/04/22 07:22:16;;;;;;;8.43;7.53;;;10.90;91.00;;;;;;5525787;25;20999;-57
2024/04/22 07:24:45;;;;;;;11.83;8.30;;;11.00;90.60;;;;;;5525946;25;20454;-56
2024/04/22 07:27:14;;;;;;;7.63;6.50;;;11.20;90.30;;;;;;5525969;25;20442;-56
2024/04/22 07:29:41;;;;;;;8.10;6.80;;;11.40;90.10;;;;;;5525684;25;20505;-56
2024/04/22 07:32:10;;;;;;;6.50;5.87;;;11.60;89.50;;;;;;5525696;25;20521;-56
2024/04/22 07:34:40;;;;;;;6.83;6.07;;;11.80;88.40;;;;;;5525575;25;20559;-56
2024/04/22 07:37:16;;;;;;;7.30;6.50;;;12.10;87.40;;;;;;5525655;25;21054;-56
2024/04/22 07:39:43;;;;;;;6.10;5.40;;;12.30;86.80;;;;;;5525522;25;20458;-56
2024/04/22 07:42:11;;;;;;;5.40;4.90;;;12.50;84.60;;;;;;5525398;25;20458;-56
2024/04/22 07:44:37;;;;;;;5.07;4.67;;;12.70;83.00;;;;;;5525501;25;20442;-56
2024/04/22 07:47:06;;;;;;;4.87;4.20;;;12.80;81.00;;;;;;5525495;25;20555;-56
2024/04/22 07:49:31;;;;;;;4.67;4.27;;;12.90;79.10;;;;;;5525398;25;20209;-56
2024/04/22 07:52:03;;;;;;;4.07;3.73;;;13.00;77.70;;;;;;5525788;25;20478;-57
2024/04/22 07:54:29;;;;;;;3.90;3.60;;;13.10;75.90;;;;;;5529180;25;20268;-57
2024/04/22 07:56:58;;;;;;;3.70;3.40;;;13.20;73.70;;;;;;5529194;25;20540;-56
2024/04/22 07:59:25;;;;;;;4.20;3.90;;;13.20;72.70;;;;;;5528956;25;20442;-56
2024/04/22 08:01:54;;;;;;;3.70;3.40;;;13.40;71.30;;;;;;5528953;25;20543;-56
2024/04/22 08:04:20;;;;;;;3.70;3.40;;;13.50;70.90;;;;;;5529356;25;20559;-56
2024/04/22 08:06:51;;;;;;;4.00;3.63;;;13.70;70.00;;;;;;5529402;25;20543;-57
2024/04/22 08:09:20;;;;;;;3.70;3.40;;;13.80;68.80;;;;;;5529432;25;20551;-56
2024/04/22 08:11:48;;;;;;;4.07;3.63;;;13.80;67.10;;;;;;5529344;25;20510;-56
2024/04/22 08:14:14;;;;;;;3.53;3.23;;;13.80;65.80;;;;;;5528777;25;20521;-56
2024/04/22 08:16:42;;;;;;;3.70;3.40;;;13.90;65.00;;;;;;5529028;25;20450;-56
2024/04/22 08:19:08;;;;;;;3.23;2.97;;;14.10;64.20;;;;;;5528879;25;20338;-56
2024/04/22 08:21:37;;;;;;;3.57;3.00;;;14.30;63.30;;;;;;5528608;25;20473;-56
2024/04/22 08:24:03;;;;;;;3.37;3.07;;;14.70;61.70;;;;;;5528967;25;20221;-56
2024/04/22 08:26:34;;;;;;;3.17;2.60;;;15.10;59.90;;;;;;5528719;25;20563;-56
2024/04/22 08:28:59;;;;;;;3.37;3.07;;;15.50;58.10;;;;;;5529022;25;20574;-56
2024/04/22 08:31:28;;;;;;;3.63;2.67;;;15.90;56.00;;;;;;5528561;25;20866;-56
2024/04/22 08:33:54;;;;;;;3.80;2.60;;;16.30;55.40;;;;;;5528616;25;20338;-56
2024/04/22 08:36:23;;;;;;;5.53;2.90;;;16.50;53.30;;;;;;5528484;25;20959;-56
2024/04/22 08:38:49;;;;;;;3.60;2.80;;;16.60;51.80;;;;;;5528793;25;20287;-56
2024/04/22 08:41:18;;;;;;;4.10;3.10;;;16.60;51.10;;;;;;5528636;25;20471;-57
2024/04/22 08:43:47;;;;;;;3.50;3.20;;;16.60;50.40;;;;;;5528166;25;20214;-56
2024/04/22 08:46:17;;;;;;;3.80;3.50;;;16.60;50.30;;;;;;5528461;25;20783;-56
2024/04/22 08:48:43;;;;;;;2.77;2.57;;;16.60;50.40;;;;;;5528405;25;21039;-56
2024/04/22 08:51:12;;;;;;;2.67;2.47;;;16.70;50.20;;;;;;5528461;25;20462;-56
2024/04/22 08:53:38;;;;;;;2.87;2.67;;;16.80;50.30;;;;;;5528355;25;20229;-56
2024/04/22 08:56:08;;;;;;;3.40;2.97;;;16.90;49.10;;;;;;5528341;25;21104;-56
2024/04/22 08:58:35;;;;;;;2.90;2.53;;;16.90;48.80;;;;;;5528360;25;20214;-56
2024/04/22 09:01:10;;;;;;;2.97;2.50;;;16.90;48.10;;;;;;5527962;25;20510;-56
2024/04/22 09:03:35;;;;;;;2.73;2.53;;;16.80;47.70;;;;;;5527442;25;20465;-56
2024/04/22 09:06:04;;;;;;;4.80;2.40;;;16.60;47.80;;;;;;5528095;25;20575;-56
2024/04/22 09:08:30;;;;;;;2.83;2.40;;;16.30;48.20;;;;;;5528574;25;20328;-56
2024/04/22 09:11:00;;;;;;;4.53;2.20;;;16.00;48.80;;;;;;5527934;25;20469;-56
2024/04/22 09:13:25;;;;;;;4.13;2.90;;;15.70;49.10;;;;;;5527944;25;20206;-56
2024/04/22 09:15:57;;;;;;;4.63;4.13;;;15.40;49.30;;;;;;5527572;25;20506;-56
2024/04/22 09:18:26;;;;;;;5.70;5.20;;;15.10;51.00;;;;;;5528038;25;20716;-57
2024/04/22 09:20:55;;;;;;;6.10;5.60;;;14.90;53.20;;;;;;5528025;25;20466;-57
2024/04/22 09:23:21;;;;;;;8.70;6.17;;;14.80;54.90;;;;;;5527851;25;20494;-56
2024/04/22 09:25:51;;;;;;;6.80;6.20;;;14.80;55.70;;;;;;5527880;25;20454;-56
2024/04/22 09:28:22;;;;;;;5.53;4.90;;;14.70;55.60;;;;;;5527758;25;20458;-57
2024/04/22 09:30:55;;;;;;;7.53;6.17;;;14.80;56.30;;;;;;5527912;25;20462;-57
2024/04/22 09:33:22;;;;;;;7.00;6.30;;;15.00;56.00;;;;;;5527787;25;20836;-56
2024/04/22 09:35:57;;;;;;;6.17;5.67;;;15.20;55.80;;;;;;5527810;25;20450;-56
2024/04/22 09:38:23;;;;;;;5.13;4.47;;;15.60;56.20;;;;;;5527518;25;20462;-57
2024/04/22 09:40:52;;;;;;;5.80;4.70;;;15.90;55.80;;;;;;5527766;25;20846;-56
2024/04/22 09:43:19;;;;;;;3.47;3.20;;;16.20;54.60;;;;;;5528593;25;20438;-56
2024/04/22 09:45:47;;;;;;;3.60;3.30;;;16.40;53.00;;;;;;5530332;25;20513;-57
2024/04/22 09:48:14;;;;;;;3.20;2.87;;;16.50;52.40;;;;;;5530351;25;20808;-57
2024/04/22 09:50:43;;;;;;;3.70;2.90;;;16.60;52.30;;;;;;5527528;25;20526;-56
2024/04/22 09:53:13;;;;;;;4.37;3.30;;;16.50;52.20;;;;;;5527531;25;20450;-57
2024/04/22 09:55:43;;;;;;;3.57;3.27;;;16.50;52.20;;;;;;5527197;25;20450;-56
2024/04/22 09:58:11;;;;;;;4.53;3.90;;;16.50;52.20;;;;;;5527394;25;20470;-56
2024/04/22 10:00:39;;;;;;;5.93;4.70;;;16.50;51.00;;;;;;5527144;25;21140;-57
2024/04/22 10:03:05;;;;;;;4.70;4.27;;;16.40;50.30;;;;;;5527362;25;20458;-56
2024/04/22 10:05:35;;;;;;;4.43;4.03;;;16.30;50.70;;;;;;5527089;25;20561;-56
2024/04/22 10:08:02;;;;;;;4.73;3.97;;;16.30;50.50;;;;;;5527269;25;20518;-56
2024/04/22 10:10:33;;;;;;;4.90;4.50;;;16.30;50.90;;;;;;5527100;25;20462;-57
2024/04/22 10:13:09;;;;;;;4.77;3.90;;;16.40;51.20;;;;;;5527216;25;20502;-56
2024/04/22 10:15:37;;;;;;;5.10;3.27;;;16.30;51.00;;;;;;5525409;25;20514;-56
2024/04/22 10:18:09;;;;;;;3.50;3.20;;;16.30;50.20;;;;;;5527153;25;20462;-56
2024/04/22 10:20:37;;;;;;;2.30;2.10;;;16.30;48.70;;;;;;5527188;25;20822;-57
2024/04/22 10:23:05;;;;;;;2.37;2.17;;;16.40;48.40;;;;;;5527019;25;20446;-57
2024/04/22 10:25:36;;;;;;;2.97;2.67;;;16.50;48.60;;;;;;5526769;25;20571;-57
2024/04/22 10:28:02;;;;;;;2.63;2.43;;;16.60;48.30;;;;;;5526853;25;20567;-56
2024/04/22 10:30:35;;;;;;;2.00;1.90;;;16.90;48.00;;;;;;5526715;25;20991;-57
2024/04/22 10:33:01;;;;;;;4.80;2.17;;;17.10;45.40;;;;;;5527009;25;20309;-57
2024/04/22 10:35:31;;;;;;;3.43;2.87;;;17.40;45.20;;;;;;5526720;25;20454;-57
2024/04/22 10:37:58;;;;;;;3.47;3.20;;;17.80;45.40;;;;;;5526866;25;20317;-57
2024/04/22 10:40:26;;;;;;;3.30;3.00;;;18.30;46.10;;;;;;5526828;25;20510;-56
2024/04/22 10:42:55;;;;;;;5.17;3.03;;;18.70;45.30;;;;;;5526694;25;20518;-57
2024/04/22 10:45:24;;;;;;;3.10;2.90;;;18.90;43.70;;;;;;5526623;25;20445;-57
2024/04/22 10:47:51;;;;;;;4.13;3.27;;;18.90;43.10;;;;;;5526627;25;20551;-57
2024/04/22 10:50:21;;;;;;;3.83;3.40;;;18.80;43.60;;;;;;5526583;25;20872;-56
2024/04/22 10:52:48;;;;;;;3.77;3.17;;;18.70;43.20;;;;;;5526612;25;20450;-57
2024/04/22 10:55:16;;;;;;;3.13;2.83;;;18.50;44.00;;;;;;5526375;25;20449;-56
2024/04/22 10:57:42;;;;;;;3.00;2.80;;;18.20;44.40;;;;;;5526384;25;20450;-56
2024/04/22 11:00:15;;;;;;;3.23;3.00;;;17.70;44.80;;;;;;5526539;25;20449;-56
2024/04/22 11:02:41;;;;;;;3.23;2.93;;;17.30;46.10;;;;;;5526446;25;20505;-57
2024/04/22 11:05:11;;;;;;;2.93;2.53;;;17.00;47.30;;;;;;5526411;25;20453;-56
2024/04/22 11:07:37;;;;;;;3.27;3.00;;;16.80;48.20;;;;;;5526123;25;20470;-56
2024/04/22 11:10:06;;;;;;;3.33;3.00;;;16.70;48.30;;;;;;5526230;25;20446;-56
2024/04/22 11:12:32;;;;;;;3.90;3.00;;;16.60;48.80;;;;;;5526362;25;20247;-57
2024/04/22 11:15:01;;;;;;;3.40;3.10;;;16.40;48.90;;;;;;5526107;25;20498;-56
2024/04/22 11:17:30;;;;;;;3.63;3.27;;;16.20;49.50;;;;;;5526147;25;20507;-57
2024/04/22 11:20:10;;;;;;;3.60;3.30;;;16.10;50.30;;;;;;5525814;25;20494;-57
2024/04/22 11:22:36;;;;;;;3.83;3.47;;;16.00;51.20;;;;;;5526285;25;20450;-57
2024/04/22 11:25:05;;;;;;;3.67;3.23;;;15.90;51.20;;;;;;5526366;25;20516;-57
2024/04/22 11:27:32;;;;;;;3.47;3.27;;;15.90;51.80;;;;;;5527530;25;20494;-57
2024/04/22 11:30:00;;;;;;;7.13;3.40;;;15.80;52.20;;;;;;5529827;25;20454;-57
2024/04/22 11:32:29;;;;;;;3.53;3.30;;;15.80;52.60;;;;;;5529815;25;20559;-57
2024/04/22 11:34:57;;;;;;;5.90;4.20;;;15.80;52.90;;;;;;5529650;25;20517;-57
2024/04/22 11:37:28;;;;;;;5.50;3.10;;;15.70;52.90;;;;;;5529685;25;20461;-58
2024/04/22 11:39:57;;;;;;;4.43;4.13;;;15.60;53.70;;;;;;5529735;25;20442;-58
2024/04/22 11:42:25;;;;;;;4.50;4.10;;;15.50;53.90;;;;;;5529660;25;20525;-58
2024/04/22 11:44:51;;;;;;;3.70;3.50;;;15.60;54.80;;;;;;5529602;25;20874;-57
2024/04/22 11:47:20;;;;;;;4.13;3.30;;;15.60;55.60;;;;;;5529115;25;20539;-57
2024/04/22 11:49:50;;;;;;;3.90;3.47;;;15.70;56.30;;;;;;5529292;25;20225;-57
2024/04/22 11:52:18;;;;;;;3.77;3.47;;;15.90;55.30;;;;;;5529319;25;20582;-57
2024/04/22 11:54:45;;;;;;;4.30;3.90;;;16.00;55.20;;;;;;5529260;25;20567;-58
2024/04/22 11:57:13;;;;;;;4.10;3.17;;;16.10;55.50;;;;;;5529160;26;20567;-57
2024/04/22 11:59:39;;;;;;;3.73;2.93;;;16.30;54.90;;;;;;5529152;25;20547;-57
2024/04/22 12:02:08;;;;;;;3.67;3.37;;;16.40;54.20;;;;;;5529099;25;20890;-57
2024/04/22 12:04:34;;;;;;;4.50;3.73;;;16.50;53.70;;;;;;5529125;25;20339;-57
2024/04/22 12:07:05;;;;;;;3.90;3.53;;;16.50;53.10;;;;;;5528971;25;20454;-57
2024/04/22 12:09:31;;;;;;;3.43;3.13;;;16.50;52.80;;;;;;5529180;25;20807;-57
2024/04/22 12:12:00;;;;;;;5.27;3.90;;;16.60;53.10;;;;;;5529083;25;20519;-57
2024/04/22 12:14:26;;;;;;;3.40;3.10;;;17.10;53.30;;;;;;5528794;25;20498;-57
2024/04/22 12:16:54;;;;;;;4.20;3.80;;;17.90;52.80;;;;;;5528772;25;20454;-56
2024/04/22 12:19:20;;;;;;;3.20;2.90;;;19.20;51.20;;;;;;5528909;25;20248;-57
2024/04/22 12:21:49;;;;;;;4.33;3.17;;;20.40;47.70;;;;;;5528588;25;20473;-57
2024/04/22 12:24:17;;;;;;;3.50;2.17;;;21.90;46.10;;;;;;5528869;25;20221;-57
2024/04/22 12:26:46;;;;;;;3.10;2.53;;;23.70;42.30;;;;;;5529066;25;20453;-55
2024/04/22 12:29:11;;;;;;;2.70;2.50;;;25.30;38.60;;;;;;5528587;25;20457;-56
2024/04/22 12:31:40;;;;;;;2.90;2.70;;;26.80;35.10;;;;;;5528522;25;21132;-56
2024/04/22 12:34:06;;;;;;;2.87;2.67;;;28.00;31.60;;;;;;5528563;25;20711;-57
2024/04/22 12:36:34;;;;;;;2.77;2.57;;;29.00;29.80;;;;;;5528667;25;20500;-57
2024/04/22 12:39:00;;;;;;;2.63;2.43;;;30.00;28.50;;;;;;5527503;25;20251;-56
2024/04/22 12:41:31;;;;;;;2.97;2.73;;;31.10;26.40;;;;;;5528347;25;20457;-56
2024/04/22 12:43:57;;;;;;;2.97;2.77;;;31.90;25.90;;;;;;5528492;25;20208;-56
2024/04/22 12:46:26;;;;;;;3.80;3.50;;;32.80;24.80;;;;;;5528542;25;20453;-56
2024/04/22 12:51:39;;;;;;;3.17;2.93;;;34.10;22.50;;;;;;5531110;26;20900;-56
2024/04/22 12:54:07;;;;;;;3.00;2.80;;;34.70;21.40;;;;;;5528342;25;20312;-57
2024/04/22 12:56:39;;;;;;;3.53;3.15;;;35.10;21.30;;;;;;5528226;25;20229;-57
2024/04/22 12:59:07;;;;;;;2.55;2.35;;;35.40;19.70;;;;;;5528675;25;20208;-57
2024/04/22 13:01:36;;;;;;;4.32;3.20;;;35.40;20.10;;;;;;5527892;25;20328;-57